Aurora, Canada
Current Conditions -  °F | °C
As of 2:00 AM on Wednesday 22 Oct 2014 (Local Time) from CYKZ Reporting Station
Broken Clouds Broken Clouds  
Wind Chill: 35°   Ceiling: 5000
Heat Index: 41°   Visibility: 15mi
Dew Point: 36°   Wind: 9mph
Humidity: 81%   Direction: 360°N
Pressure: 30.17"   Gusts: NA
Location:  44°N, 79.47°W
Report Text: CYKZ 220600Z 36008KT 15SM BKN050 BKN120 05/02 A3017 RMK SC6AC2SLP224
Loading
Personal Weather Stations






























Interactive Weather Map
Tropical Storm Tracking
New forecast layout! Learn more

10-Day Weather Forecast

Advertisements
Track Severe Weather on mobile